Архив погоды в Донецке за Январь, 2019 год

icon
Год:Все200220032004200520062007200820092010201120122013201420152016201720182019
Месяц:ЯнварьФевральМартДекабрь
Дата Облачность Температура (д/н), °C Давление, мм Влажность, % Ветер, м/с
01.01.2019 Облачность пасмурно -5 / -5 743 93 З, 1
02.01.2019 Облачность пасмурно -2 / +0 736 99 Ю-В, 2
03.01.2019 Облачность пасмурно +0 / -1 735 100 З, 2
04.01.2019 Облачность снег -2 / -3 732 100 С-В, 4
05.01.2019 Облачность пасмурно -4 / -9 737 90 Ю-З, 3
06.01.2019 Облачность снег -4 / -5 733 93 В, 4
07.01.2019 Облачность снег -6 / -7 737 89 В, 8
08.01.2019 Облачность пасмурно -4 / -5 737 100 Ю-В, 1
09.01.2019 Облачность пасмурно -6 / -6 737 92 В, 1
10.01.2019 Облачность пасмурно -4 / -2 740 96 нет
11.01.2019 Облачность дождь +4 / +0 732 100 Ю, 5
12.01.2019 Облачность пасмурно -5 / -5 732 86 Ю-З, 6
13.01.2019 Облачность ясно -3 / -7 731 76 З, 2
14.01.2019 Облачность снег -2 / +0 726 94 Ю, 3
15.01.2019 Облачность дождь +1 / -3 727 98 Ю-З, 2
16.01.2019 Облачность ясно -4 / -7 730 82 Ю-З, 4
17.01.2019 Облачность ясно -1 / -2 739 67 Ю, 1
18.01.2019 Облачность пасмурно +0 / +2 738 100 Ю-З, 3
19.01.2019 Облачность дождь +1 / -10 737 100 С-З, 2
20.01.2019 Облачность ясно -3 / -6 743 74 Ю-В, 3
21.01.2019 Облачность дождь +2 / -9 734 98 З, 1
22.01.2019 Облачность ясно -6 / -12 743 70 В, 1
23.01.2019 Облачность снег -6 / -1 737 94 В, 4
24.01.2019 Облачность пасмурно +3 / -2 732 97 Ю-З, 4
25.01.2019 Облачность пасмурно -3 / -2 738 91 В, 7
26.01.2019 Облачность пасмурно +0 / +0 734 100 В, 5
27.01.2019 Облачность пасмурно +3 / -7 727 100 Ю, 3
28.01.2019 Облачность пасмурно -6 / -11 735 85 З, 3
29.01.2019 Облачность пасмурно -3 / +0 739 91 Ю-В, 3
30.01.2019 Облачность пасмурно +0 / +0 738 100 В, 3
31.01.2019 Облачность пасмурно +0 / -2 736 96 В, 5
icon
Облачность:пасмурно пасмурно
Темп. днем:12..14 °C
Темп. ночью:2..4 °C
Давление:749 мм
Влажность:47 %
Ветер:Ю, 1 м/с
icon
USDusd27,16(+0,02894)
RUBrub0,42(+0,00275)
EUReur30,85(+0,05729)
icon
Ср. 20 Март 2019
icon
Логин:
Код: ---
 
Реклама
icon